メインページ
METAR-TAF:

METAR-TAF

空港 :

ドバイ, アラブ首長国連邦

ドバイ国際空港

緯度: 25-15-10N, 経度: 055-21-52E, 海抜: 8m

現時点の気象観測

当レポートは24分前の06:00(UTC)に作成
の風 9kt、東/北東から南東の間で変化する
気温 22°C
湿度 50%
気圧 1020 hPa
視程10km以上
1,500メートル以下は雲なし、積乱雲なし

METAR: OMDB 140600Z 10009KT 060V130 CAVOK 22/11 Q1020 NOSIG

時間: 10:24 (06:24 UTC)

予報

当レポートは1時間33分前の04:51(UTC)に作成
予報は14日の 06時(UTC)から 15日の 12時(UTC)まで有効
南/南東の風 7kt
視程: 8000m
高度3500ftの雲は散在している
14日の 09時(UTC)から 14日の 11時(UTC)まで徐々に
の風 10kt
14日の 14時(UTC)から 14日の 16時(UTC)まで徐々に
南東の風 12kt
確率 30%
15日の 10時(UTC)から 15日の 12時(UTC)まで
の風 10kt

TAF: OMDB 140451Z 1406/1512 15007KT 8000 SCT035 BECMG 1409/1411 35010KT BECMG 1414/1416 14012KT PROB30 1510/1512 36010KT

4,000以上の空港の気象観測と天気予報(METAR報とTAF報)

利用可能な観測所は地図上に黄色い丸と赤い丸で示す。

丸の上にカーソルを重ねると観測所名を参照できる。

次にクリックすると気象観測と天気予報を参照できる。

マップの切り替え:黒色「×」印の緑ボタンをクリックして拡大、「-」印の緑ボタンをクリックして縮小、緑色の三角印をクリックして隣りの地図に切り替え


METAR-TAF: